Springwood (valley Height, New South Wales

3:44 AM AEDT on November 01, 2014 (GMT +1100)
Davies Avenue | Change Station
CLOSE
Current Station
Personal Weather Station
Location: Springwood, NSW
Elevation: 1318 ft
Nearby Weather Stations

Elev 1318 ft 33.70 °S, 150.55 °E | Updated 9 seconds ago

Clear
Clear
74.3 °F
Feels Like 77 °F
N
2.2
Wind Variable Wind from North
Gusts 4.5 mph

Today
High -- | Low -- °F
--% Chance of Precip.
Yesterday
High -- | Low -- °F
Precip. -- in
5:58 AM 7:25 PM
First Quarter, 57% visible
Pressure 29.65 in
Visibility 6.2 miles
Clouds
Heat Index 77 °F
Dew Point 53 °F
Humidity 47%
Rainfall 0.00 in
Snow Depth Not available.
UV Not available.
Pollen Not available.
Air Quality Not available.
Flu Activity Not available.
METAR YSSY 311630Z 35009KT 9999 VCSH NSC 26/11 Q1004 RMK 1AC090 4AC120 7AC140 NOSIG

More Conditions Fewer Conditions

Pressure 29.65 in
Visibility 6.2 miles
Clouds
Heat Index 77 °F
Dew Point 53 °F
Humidity 47%
Rainfall 0.00 in
Snow Depth Not available.
UV Not available.
Pollen Not available.
Air Quality Not available.
Flu Activity Not available.
METAR YSSY 311630Z 35009KT 9999 VCSH NSC 26/11 Q1004 RMK 1AC090 4AC120 7AC140 NOSIG

More Conditions Fewer Conditions

10-Day Weather Forecast

Almanac

Astronomy

Nov. 01, 2014 Rise Set
Actual Time
Civil Twilight
Nautical Twilight
Astronomical Twilight
Moon
Length of Visible Light
Length of Day
Tomorrow will be .
, % of the Moon is Illuminated

Today's Extremes

Country Highs Country Lows

Community

WunderPhotos

Upload Photos

1,766,657 photos uploaded!

WunderBlogs® & News

Nearby

Air Quality

  Air Quality AQ Index Pollutant
Not available.

Snow Depth

Station Depth Elevation

Earthquake Activity

City Distance Mag. Time & Date
Minimum magnitude displayed is 2.5.

Coastal Water Temperatures

Place Temperature

Nearby Weather Stations